sensor_id;sensor_type;location;lat;lon;timestamp;pressure;altitude;pressure_sealevel;temperature;humidity
61528;BME280;47395;42.032;-8.634;2023-01-29T00:00:45;102055.38;;;8.95;56.35
61528;BME280;47395;42.032;-8.634;2023-01-29T00:02:46;102056.50;;;8.81;55.34
61528;BME280;47395;42.032;-8.634;2023-01-29T00:04:47;102057.88;;;8.99;54.54
61528;BME280;47395;42.032;-8.634;2023-01-29T00:06:48;102043.75;;;9.05;55.69
61528;BME280;47395;42.032;-8.634;2023-01-29T00:08:49;102043.00;;;8.98;55.82
61528;BME280;47395;42.032;-8.634;2023-01-29T00:10:50;102041.53;;;8.85;56.09
61528;BME280;47395;42.032;-8.634;2023-01-29T00:12:50;102035.13;;;8.98;56.34
61528;BME280;47395;42.032;-8.634;2023-01-29T00:14:52;102031.28;;;9.15;57.38
61528;BME280;47395;42.032;-8.634;2023-01-29T00:16:53;102041.31;;;8.96;54.71
61528;BME280;47395;42.032;-8.634;2023-01-29T00:18:54;102037.94;;;8.89;55.73
61528;BME280;47395;42.032;-8.634;2023-01-29T00:20:55;102018.78;;;8.84;56.96
61528;BME280;47395;42.032;-8.634;2023-01-29T00:22:56;102023.22;;;8.80;53.75
61528;BME280;47395;42.032;-8.634;2023-01-29T00:24:57;102013.44;;;8.88;57.04
61528;BME280;47395;42.032;-8.634;2023-01-29T00:26:58;102021.25;;;8.92;57.27
61528;BME280;47395;42.032;-8.634;2023-01-29T00:28:59;102014.19;;;8.94;56.65
61528;BME280;47395;42.032;-8.634;2023-01-29T00:31:09;102022.25;;;8.86;55.70
61528;BME280;47395;42.032;-8.634;2023-01-29T00:33:10;102031.22;;;8.75;56.78
61528;BME280;47395;42.032;-8.634;2023-01-29T00:35:12;102028.56;;;8.77;55.37
61528;BME280;47395;42.032;-8.634;2023-01-29T00:37:13;102033.34;;;8.56;57.55
61528;BME280;47395;42.032;-8.634;2023-01-29T00:39:14;102029.31;;;8.36;55.60
61528;BME280;47395;42.032;-8.634;2023-01-29T00:41:15;102035.31;;;8.43;56.69
61528;BME280;47395;42.032;-8.634;2023-01-29T00:43:34;102035.34;;;8.40;56.22
61528;BME280;47395;42.032;-8.634;2023-01-29T00:45:54;102034.81;;;8.71;58.23
61528;BME280;47395;42.032;-8.634;2023-01-29T00:47:54;102027.06;;;8.65;57.12
61528;BME280;47395;42.032;-8.634;2023-01-29T00:49:56;102032.00;;;8.81;58.15
61528;BME280;47395;42.032;-8.634;2023-01-29T00:51:57;102029.44;;;8.76;58.60
61528;BME280;47395;42.032;-8.634;2023-01-29T00:54:16;102026.38;;;8.54;57.06
61528;BME280;47395;42.032;-8.634;2023-01-29T00:56:17;102028.19;;;8.50;57.59
61528;BME280;47395;42.032;-8.634;2023-01-29T00:58:18;102029.69;;;8.65;55.47
61528;BME280;47395;42.032;-8.634;2023-01-29T01:00:22;102028.44;;;8.34;55.27
61528;BME280;47395;42.032;-8.634;2023-01-29T01:02:25;102025.66;;;8.44;55.94
61528;BME280;47395;42.032;-8.634;2023-01-29T01:04:44;102017.88;;;8.39;55.15
61528;BME280;47395;42.032;-8.634;2023-01-29T01:06:46;102011.97;;;8.26;55.90
61528;BME280;47395;42.032;-8.634;2023-01-29T01:08:46;102015.56;;;8.20;56.21
61528;BME280;47395;42.032;-8.634;2023-01-29T01:11:06;102013.66;;;8.29;57.76
61528;BME280;47395;42.032;-8.634;2023-01-29T01:13:07;102006.00;;;8.16;57.48
61528;BME280;47395;42.032;-8.634;2023-01-29T01:15:08;102019.22;;;8.13;57.59
61528;BME280;47395;42.032;-8.634;2023-01-29T01:17:09;102020.13;;;8.12;57.12
61528;BME280;47395;42.032;-8.634;2023-01-29T01:19:11;102001.66;;;8.15;57.14
61528;BME280;47395;42.032;-8.634;2023-01-29T01:21:12;102014.00;;;8.10;54.87
61528;BME280;47395;42.032;-8.634;2023-01-29T01:23:13;102007.84;;;8.13;58.29
61528;BME280;47395;42.032;-8.634;2023-01-29T01:25:14;102004.38;;;8.12;59.16
61528;BME280;47395;42.032;-8.634;2023-01-29T01:27:15;102000.06;;;8.08;57.24
61528;BME280;47395;42.032;-8.634;2023-01-29T01:29:16;101998.28;;;8.08;56.45
61528;BME280;47395;42.032;-8.634;2023-01-29T01:31:18;101999.22;;;8.04;55.69
61528;BME280;47395;42.032;-8.634;2023-01-29T01:33:19;102000.09;;;8.05;57.60
61528;BME280;47395;42.032;-8.634;2023-01-29T01:35:19;102001.34;;;7.83;56.30
61528;BME280;47395;42.032;-8.634;2023-01-29T01:37:20;102003.50;;;8.10;56.98
61528;BME280;47395;42.032;-8.634;2023-01-29T01:39:22;102009.06;;;7.91;54.61
61528;BME280;47395;42.032;-8.634;2023-01-29T01:41:23;102005.84;;;7.75;55.41
61528;BME280;47395;42.032;-8.634;2023-01-29T01:43:24;102004.19;;;7.68;55.72
61528;BME280;47395;42.032;-8.634;2023-01-29T01:47:37;102013.13;;;7.56;57.83
61528;BME280;47395;42.032;-8.634;2023-01-29T01:49:40;101998.00;;;7.74;58.74
61528;BME280;47395;42.032;-8.634;2023-01-29T01:51:45;102008.44;;;7.77;56.18
61528;BME280;47395;42.032;-8.634;2023-01-29T01:53:54;102008.28;;;7.86;57.03
61528;BME280;47395;42.032;-8.634;2023-01-29T01:56:01;102015.56;;;7.68;55.85
61528;BME280;47395;42.032;-8.634;2023-01-29T01:58:09;102015.63;;;7.65;56.27
61528;BME280;47395;42.032;-8.634;2023-01-29T02:00:14;102019.28;;;7.53;57.63
61528;BME280;47395;42.032;-8.634;2023-01-29T02:02:17;102018.22;;;7.67;58.29
61528;BME280;47395;42.032;-8.634;2023-01-29T02:04:45;102001.59;;;7.68;57.26
61528;BME280;47395;42.032;-8.634;2023-01-29T02:07:07;102007.97;;;7.50;56.54
61528;BME280;47395;42.032;-8.634;2023-01-29T02:09:35;102006.16;;;7.55;57.42
61528;BME280;47395;42.032;-8.634;2023-01-29T02:11:39;102004.56;;;7.43;56.47
61528;BME280;47395;42.032;-8.634;2023-01-29T02:13:40;102007.28;;;7.38;57.96
61528;BME280;47395;42.032;-8.634;2023-01-29T02:15:42;102005.34;;;7.50;58.79
61528;BME280;47395;42.032;-8.634;2023-01-29T02:17:46;102017.31;;;7.69;59.73
61528;BME280;47395;42.032;-8.634;2023-01-29T02:20:21;102019.81;;;7.76;57.35
61528;BME280;47395;42.032;-8.634;2023-01-29T02:28:15;101997.00;;;7.81;59.60
61528;BME280;47395;42.032;-8.634;2023-01-29T02:30:31;102006.31;;;7.99;59.98
61528;BME280;47395;42.032;-8.634;2023-01-29T02:34:47;102019.75;;;7.80;57.54
61528;BME280;47395;42.032;-8.634;2023-01-29T02:37:12;102022.16;;;7.94;58.33
61528;BME280;47395;42.032;-8.634;2023-01-29T02:39:46;102019.78;;;7.77;55.57
61528;BME280;47395;42.032;-8.634;2023-01-29T02:42:10;102027.75;;;7.73;58.76
61528;BME280;47395;42.032;-8.634;2023-01-29T02:46:47;102015.88;;;7.48;57.17
61528;BME280;47395;42.032;-8.634;2023-01-29T02:52:20;102026.97;;;7.66;60.25
61528;BME280;47395;42.032;-8.634;2023-01-29T02:56:54;102015.94;;;7.43;57.21
61528;BME280;47395;42.032;-8.634;2023-01-29T02:59:03;102015.91;;;7.47;59.15
61528;BME280;47395;42.032;-8.634;2023-01-29T03:01:15;102016.84;;;7.41;59.34
61528;BME280;47395;42.032;-8.634;2023-01-29T03:03:27;102019.38;;;7.47;59.98
61528;BME280;47395;42.032;-8.634;2023-01-29T03:05:55;102021.97;;;7.50;59.21
61528;BME280;47395;42.032;-8.634;2023-01-29T03:08:05;102017.53;;;7.54;59.10
61528;BME280;47395;42.032;-8.634;2023-01-29T03:12:59;102006.53;;;7.28;58.10
61528;BME280;47395;42.032;-8.634;2023-01-29T03:15:17;101997.91;;;7.20;59.51
61528;BME280;47395;42.032;-8.634;2023-01-29T03:17:52;101997.69;;;7.37;59.61
61528;BME280;47395;42.032;-8.634;2023-01-29T03:19:55;101986.34;;;7.35;58.36
61528;BME280;47395;42.032;-8.634;2023-01-29T03:21:59;101986.13;;;7.51;59.37
61528;BME280;47395;42.032;-8.634;2023-01-29T03:24:05;101990.28;;;7.64;60.59
61528;BME280;47395;42.032;-8.634;2023-01-29T03:26:27;101987.41;;;7.78;57.71
61528;BME280;47395;42.032;-8.634;2023-01-29T03:28:47;101978.78;;;7.71;56.87
61528;BME280;47395;42.032;-8.634;2023-01-29T03:31:11;101990.16;;;7.70;58.07
61528;BME280;47395;42.032;-8.634;2023-01-29T03:33:39;101989.91;;;7.88;60.05
61528;BME280;47395;42.032;-8.634;2023-01-29T03:36:07;101994.28;;;7.87;60.00
61528;BME280;47395;42.032;-8.634;2023-01-29T03:38:10;101995.22;;;7.83;60.83
61528;BME280;47395;42.032;-8.634;2023-01-29T03:40:12;101987.19;;;7.92;59.64
61528;BME280;47395;42.032;-8.634;2023-01-29T03:45:03;101988.34;;;7.74;59.10
61528;BME280;47395;42.032;-8.634;2023-01-29T03:50:53;101980.56;;;7.71;60.53
61528;BME280;47395;42.032;-8.634;2023-01-29T03:55:28;101983.41;;;7.55;59.13
61528;BME280;47395;42.032;-8.634;2023-01-29T03:57:45;101992.72;;;7.77;59.18
61528;BME280;47395;42.032;-8.634;2023-01-29T04:00:05;101984.56;;;7.92;59.41
61528;BME280;47395;42.032;-8.634;2023-01-29T04:02:30;101990.78;;;7.85;59.00
61528;BME280;47395;42.032;-8.634;2023-01-29T04:04:43;101999.66;;;7.79;58.25
61528;BME280;47395;42.032;-8.634;2023-01-29T04:06:48;101993.66;;;7.71;57.30
61528;BME280;47395;42.032;-8.634;2023-01-29T04:08:58;101990.59;;;7.97;59.40
61528;BME280;47395;42.032;-8.634;2023-01-29T04:11:09;101995.03;;;7.95;57.41
61528;BME280;47395;42.032;-8.634;2023-01-29T04:13:12;102001.94;;;8.00;57.88
61528;BME280;47395;42.032;-8.634;2023-01-29T04:15:18;102001.44;;;7.76;58.16
61528;BME280;47395;42.032;-8.634;2023-01-29T04:17:24;102015.00;;;7.48;56.59
61528;BME280;47395;42.032;-8.634;2023-01-29T04:19:37;102009.16;;;7.27;59.23
61528;BME280;47395;42.032;-8.634;2023-01-29T04:21:39;102015.72;;;6.95;58.62
61528;BME280;47395;42.032;-8.634;2023-01-29T04:23:40;102013.19;;;6.88;59.07
61528;BME280;47395;42.032;-8.634;2023-01-29T04:25:44;102007.09;;;6.86;59.32
61528;BME280;47395;42.032;-8.634;2023-01-29T04:28:03;102004.56;;;6.78;58.21
61528;BME280;47395;42.032;-8.634;2023-01-29T04:30:38;102015.06;;;6.75;60.54
61528;BME280;47395;42.032;-8.634;2023-01-29T04:33:28;102014.97;;;6.83;60.51
61528;BME280;47395;42.032;-8.634;2023-01-29T04:35:39;102011.41;;;6.89;59.74
61528;BME280;47395;42.032;-8.634;2023-01-29T04:37:54;102015.69;;;6.99;58.34
61528;BME280;47395;42.032;-8.634;2023-01-29T04:40:13;102018.44;;;6.88;58.63
61528;BME280;47395;42.032;-8.634;2023-01-29T04:42:36;102016.63;;;6.92;59.33
61528;BME280;47395;42.032;-8.634;2023-01-29T04:47:33;102008.88;;;6.84;59.51
61528;BME280;47395;42.032;-8.634;2023-01-29T04:54:23;102015.44;;;7.18;60.32
61528;BME280;47395;42.032;-8.634;2023-01-29T04:57:50;102022.38;;;7.21;60.89
61528;BME280;47395;42.032;-8.634;2023-01-29T05:07:02;102033.31;;;7.52;58.39
61528;BME280;47395;42.032;-8.634;2023-01-29T05:09:04;102041.66;;;7.16;59.97
61528;BME280;47395;42.032;-8.634;2023-01-29T05:11:06;102042.69;;;7.04;61.66
61528;BME280;47395;42.032;-8.634;2023-01-29T05:13:10;102041.09;;;6.91;59.24
61528;BME280;47395;42.032;-8.634;2023-01-29T05:15:18;102036.69;;;6.93;61.77
61528;BME280;47395;42.032;-8.634;2023-01-29T05:17:19;102040.53;;;6.65;59.07
61528;BME280;47395;42.032;-8.634;2023-01-29T05:19:20;102032.59;;;6.70;62.00
61528;BME280;47395;42.032;-8.634;2023-01-29T05:21:22;102030.78;;;6.75;61.80
61528;BME280;47395;42.032;-8.634;2023-01-29T05:23:24;102031.66;;;6.79;60.80
61528;BME280;47395;42.032;-8.634;2023-01-29T05:25:30;102030.63;;;6.91;60.83
61528;BME280;47395;42.032;-8.634;2023-01-29T05:27:33;102028.59;;;7.12;62.60
61528;BME280;47395;42.032;-8.634;2023-01-29T05:29:53;102028.78;;;6.98;61.61
61528;BME280;47395;42.032;-8.634;2023-01-29T05:31:54;102026.94;;;7.06;61.39
61528;BME280;47395;42.032;-8.634;2023-01-29T05:33:55;102021.91;;;6.87;59.67
61528;BME280;47395;42.032;-8.634;2023-01-29T05:35:57;102020.00;;;7.03;62.76
61528;BME280;47395;42.032;-8.634;2023-01-29T05:37:58;102036.50;;;7.10;60.90
61528;BME280;47395;42.032;-8.634;2023-01-29T05:39:59;102029.44;;;7.17;60.31
61528;BME280;47395;42.032;-8.634;2023-01-29T05:42:00;102031.81;;;7.32;60.18
61528;BME280;47395;42.032;-8.634;2023-01-29T05:44:01;102024.72;;;7.39;60.17
61528;BME280;47395;42.032;-8.634;2023-01-29T05:46:02;102023.97;;;7.31;59.35
61528;BME280;47395;42.032;-8.634;2023-01-29T05:48:03;102036.25;;;7.29;59.54
61528;BME280;47395;42.032;-8.634;2023-01-29T05:50:05;102032.53;;;7.44;59.48
61528;BME280;47395;42.032;-8.634;2023-01-29T05:52:06;102041.69;;;7.13;59.45
61528;BME280;47395;42.032;-8.634;2023-01-29T05:54:06;102048.63;;;7.16;59.27
61528;BME280;47395;42.032;-8.634;2023-01-29T05:56:07;102050.44;;;7.11;59.52
61528;BME280;47395;42.032;-8.634;2023-01-29T05:58:08;102056.84;;;6.89;59.59
61528;BME280;47395;42.032;-8.634;2023-01-29T06:00:10;102052.03;;;6.47;61.65
61528;BME280;47395;42.032;-8.634;2023-01-29T06:02:15;102054.94;;;6.16;61.46
61528;BME280;47395;42.032;-8.634;2023-01-29T06:04:15;102050.69;;;6.06;62.07
61528;BME280;47395;42.032;-8.634;2023-01-29T06:06:16;102063.09;;;5.75;62.16
61528;BME280;47395;42.032;-8.634;2023-01-29T06:08:17;102074.38;;;5.84;63.50
61528;BME280;47395;42.032;-8.634;2023-01-29T06:10:18;102075.97;;;6.08;65.42
61528;BME280;47395;42.032;-8.634;2023-01-29T06:12:19;102071.44;;;6.26;64.26
61528;BME280;47395;42.032;-8.634;2023-01-29T06:14:20;102074.63;;;6.59;64.70
61528;BME280;47395;42.032;-8.634;2023-01-29T06:16:21;102069.44;;;6.53;63.44
61528;BME280;47395;42.032;-8.634;2023-01-29T06:18:22;102067.53;;;6.71;61.39
61528;BME280;47395;42.032;-8.634;2023-01-29T06:20:23;102068.31;;;6.79;62.58
61528;BME280;47395;42.032;-8.634;2023-01-29T06:22:23;102061.50;;;6.62;61.53
61528;BME280;47395;42.032;-8.634;2023-01-29T06:24:24;102059.84;;;6.52;63.55
61528;BME280;47395;42.032;-8.634;2023-01-29T06:26:25;102062.53;;;6.47;63.46
61528;BME280;47395;42.032;-8.634;2023-01-29T06:28:26;102060.13;;;6.24;61.15
61528;BME280;47395;42.032;-8.634;2023-01-29T06:30:27;102057.78;;;5.86;62.17
61528;BME280;47395;42.032;-8.634;2023-01-29T06:32:28;102065.66;;;5.82;65.77
61528;BME280;47395;42.032;-8.634;2023-01-29T06:34:28;102054.16;;;6.06;65.86
61528;BME280;47395;42.032;-8.634;2023-01-29T06:36:29;102067.22;;;6.11;63.93
61528;BME280;47395;42.032;-8.634;2023-01-29T06:38:30;102060.91;;;6.32;63.47
61528;BME280;47395;42.032;-8.634;2023-01-29T06:40:31;102066.22;;;6.24;63.67
61528;BME280;47395;42.032;-8.634;2023-01-29T06:42:33;102061.72;;;6.37;63.00
61528;BME280;47395;42.032;-8.634;2023-01-29T06:44:34;102057.78;;;5.83;62.30
61528;BME280;47395;42.032;-8.634;2023-01-29T06:46:35;102068.41;;;5.58;64.13
61528;BME280;47395;42.032;-8.634;2023-01-29T06:48:36;102067.63;;;5.44;63.89
61528;BME280;47395;42.032;-8.634;2023-01-29T06:50:36;102070.25;;;5.44;64.08
61528;BME280;47395;42.032;-8.634;2023-01-29T06:52:37;102071.22;;;5.21;65.02
61528;BME280;47395;42.032;-8.634;2023-01-29T06:54:37;102065.97;;;5.26;65.59
61528;BME280;47395;42.032;-8.634;2023-01-29T06:56:38;102066.78;;;5.42;67.81
61528;BME280;47395;42.032;-8.634;2023-01-29T06:58:39;102066.53;;;5.78;67.67
61528;BME280;47395;42.032;-8.634;2023-01-29T07:00:40;102061.09;;;6.12;66.75
61528;BME280;47395;42.032;-8.634;2023-01-29T07:02:40;102070.53;;;6.30;63.86
61528;BME280;47395;42.032;-8.634;2023-01-29T07:04:41;102059.94;;;6.44;64.52
61528;BME280;47395;42.032;-8.634;2023-01-29T07:06:42;102071.91;;;6.69;62.17
61528;BME280;47395;42.032;-8.634;2023-01-29T07:08:43;102069.00;;;6.94;63.31
61528;BME280;47395;42.032;-8.634;2023-01-29T07:10:43;102075.97;;;6.96;59.81
61528;BME280;47395;42.032;-8.634;2023-01-29T07:12:44;102076.75;;;7.03;60.37
61528;BME280;47395;42.032;-8.634;2023-01-29T07:14:45;102076.38;;;7.32;62.78
61528;BME280;47395;42.032;-8.634;2023-01-29T07:16:46;102080.72;;;7.35;59.98
61528;BME280;47395;42.032;-8.634;2023-01-29T07:18:47;102067.63;;;7.34;58.92
61528;BME280;47395;42.032;-8.634;2023-01-29T07:20:48;102069.56;;;7.21;58.63
61528;BME280;47395;42.032;-8.634;2023-01-29T07:22:48;102079.09;;;7.28;57.41
61528;BME280;47395;42.032;-8.634;2023-01-29T07:24:49;102076.38;;;7.34;61.35
61528;BME280;47395;42.032;-8.634;2023-01-29T07:26:50;102088.81;;;7.16;57.44
61528;BME280;47395;42.032;-8.634;2023-01-29T07:28:51;102099.28;;;7.18;60.07
61528;BME280;47395;42.032;-8.634;2023-01-29T07:30:57;102096.03;;;6.97;58.70
61528;BME280;47395;42.032;-8.634;2023-01-29T07:33:06;102096.13;;;6.91;58.48
61528;BME280;47395;42.032;-8.634;2023-01-29T07:35:08;102092.69;;;6.84;59.98
61528;BME280;47395;42.032;-8.634;2023-01-29T07:37:08;102097.03;;;6.85;59.66
61528;BME280;47395;42.032;-8.634;2023-01-29T07:39:10;102110.22;;;6.77;58.30
61528;BME280;47395;42.032;-8.634;2023-01-29T07:41:11;102109.44;;;6.71;58.11
61528;BME280;47395;42.032;-8.634;2023-01-29T07:43:12;102110.16;;;6.82;60.66
61528;BME280;47395;42.032;-8.634;2023-01-29T07:45:13;102118.78;;;6.95;61.46
61528;BME280;47395;42.032;-8.634;2023-01-29T07:47:14;102120.41;;;7.04;61.16
61528;BME280;47395;42.032;-8.634;2023-01-29T07:49:15;102116.94;;;7.03;58.43
61528;BME280;47395;42.032;-8.634;2023-01-29T07:51:16;102132.56;;;7.13;59.41
61528;BME280;47395;42.032;-8.634;2023-01-29T07:53:17;102141.34;;;7.07;61.38
61528;BME280;47395;42.032;-8.634;2023-01-29T07:55:18;102148.47;;;6.94;58.09
61528;BME280;47395;42.032;-8.634;2023-01-29T07:57:20;102151.75;;;7.13;60.09
61528;BME280;47395;42.032;-8.634;2023-01-29T07:59:21;102158.56;;;7.31;60.31
61528;BME280;47395;42.032;-8.634;2023-01-29T08:01:21;102157.38;;;7.57;63.07
61528;BME280;47395;42.032;-8.634;2023-01-29T08:03:22;102145.81;;;7.71;59.63
61528;BME280;47395;42.032;-8.634;2023-01-29T08:05:23;102147.78;;;7.53;60.41
61528;BME280;47395;42.032;-8.634;2023-01-29T08:07:24;102137.16;;;7.64;59.50
61528;BME280;47395;42.032;-8.634;2023-01-29T08:09:25;102138.13;;;7.57;56.43
61528;BME280;47395;42.032;-8.634;2023-01-29T08:11:25;102134.84;;;7.41;56.52
61528;BME280;47395;42.032;-8.634;2023-01-29T08:13:26;102133.38;;;7.16;57.60
61528;BME280;47395;42.032;-8.634;2023-01-29T08:15:27;102135.44;;;6.88;57.86
61528;BME280;47395;42.032;-8.634;2023-01-29T08:17:28;102133.03;;;6.66;57.74
61528;BME280;47395;42.032;-8.634;2023-01-29T08:19:29;102141.09;;;6.41;58.79
61528;BME280;47395;42.032;-8.634;2023-01-29T08:21:30;102143.72;;;6.41;59.74
61528;BME280;47395;42.032;-8.634;2023-01-29T08:23:31;102149.00;;;6.38;59.15
61528;BME280;47395;42.032;-8.634;2023-01-29T08:25:33;102149.00;;;6.38;59.52
61528;BME280;47395;42.032;-8.634;2023-01-29T08:27:34;102144.56;;;6.45;59.86
61528;BME280;47395;42.032;-8.634;2023-01-29T08:29:35;102150.72;;;6.40;59.33
61528;BME280;47395;42.032;-8.634;2023-01-29T08:31:35;102146.38;;;6.38;59.16
61528;BME280;47395;42.032;-8.634;2023-01-29T08:33:36;102151.69;;;6.25;59.82
61528;BME280;47395;42.032;-8.634;2023-01-29T08:35:37;102150.81;;;6.25;59.70
61528;BME280;47395;42.032;-8.634;2023-01-29T08:37:38;102150.88;;;6.17;59.69
61528;BME280;47395;42.032;-8.634;2023-01-29T08:39:39;102162.09;;;6.33;60.04
61528;BME280;47395;42.032;-8.634;2023-01-29T08:41:40;102156.78;;;6.46;59.39
61528;BME280;47395;42.032;-8.634;2023-01-29T08:43:40;102165.28;;;6.73;61.09
61528;BME280;47395;42.032;-8.634;2023-01-29T08:45:42;102167.69;;;6.95;59.34
61528;BME280;47395;42.032;-8.634;2023-01-29T08:47:47;102177.03;;;7.19;59.90
61528;BME280;47395;42.032;-8.634;2023-01-29T08:49:48;102182.25;;;7.24;57.99
61528;BME280;47395;42.032;-8.634;2023-01-29T08:51:49;102174.19;;;7.39;58.23
61528;BME280;47395;42.032;-8.634;2023-01-29T08:53:51;102178.63;;;7.34;58.06
61528;BME280;47395;42.032;-8.634;2023-01-29T08:55:52;102183.63;;;7.53;58.74
61528;BME280;47395;42.032;-8.634;2023-01-29T08:57:54;102187.16;;;7.52;56.59
61528;BME280;47395;42.032;-8.634;2023-01-29T08:59:56;102186.09;;;7.65;56.93
61528;BME280;47395;42.032;-8.634;2023-01-29T09:01:57;102186.94;;;7.69;58.56
61528;BME280;47395;42.032;-8.634;2023-01-29T09:03:58;102190.84;;;8.03;59.07
61528;BME280;47395;42.032;-8.634;2023-01-29T09:05:59;102194.03;;;8.80;54.63
61528;BME280;47395;42.032;-8.634;2023-01-29T09:08:00;102200.59;;;10.31;50.71
61528;BME280;47395;42.032;-8.634;2023-01-29T09:10:01;102193.63;;;12.23;45.79
61528;BME280;47395;42.032;-8.634;2023-01-29T09:12:02;102192.16;;;13.91;42.21
61528;BME280;47395;42.032;-8.634;2023-01-29T09:14:03;102190.69;;;14.93;39.49
61528;BME280;47395;42.032;-8.634;2023-01-29T09:16:04;102195.28;;;16.43;36.02
61528;BME280;47395;42.032;-8.634;2023-01-29T09:18:05;102177.69;;;17.27;34.91
61528;BME280;47395;42.032;-8.634;2023-01-29T09:20:06;102182.19;;;16.91;33.95
61528;BME280;47395;42.032;-8.634;2023-01-29T09:22:07;102184.50;;;16.64;34.33
61528;BME280;47395;42.032;-8.634;2023-01-29T09:24:08;102176.59;;;17.80;33.63
61528;BME280;47395;42.032;-8.634;2023-01-29T09:26:10;102192.00;;;16.38;33.77
61528;BME280;47395;42.032;-8.634;2023-01-29T09:28:11;102181.50;;;18.50;31.14
61528;BME280;47395;42.032;-8.634;2023-01-29T09:30:12;102176.28;;;19.38;29.63
61528;BME280;47395;42.032;-8.634;2023-01-29T09:32:13;102174.94;;;20.15;28.42
61528;BME280;47395;42.032;-8.634;2023-01-29T09:34:14;102175.06;;;21.19;27.10
61528;BME280;47395;42.032;-8.634;2023-01-29T09:36:15;102181.41;;;21.93;25.81
61528;BME280;47395;42.032;-8.634;2023-01-29T09:38:16;102183.94;;;22.79;25.13
61528;BME280;47395;42.032;-8.634;2023-01-29T09:43:08;102189.59;;;23.89;24.56
61528;BME280;47395;42.032;-8.634;2023-01-29T09:45:21;102190.25;;;23.58;24.42
61528;BME280;47395;42.032;-8.634;2023-01-29T09:47:26;102192.38;;;23.54;24.42
61528;BME280;47395;42.032;-8.634;2023-01-29T09:49:34;102196.78;;;23.99;23.25
61528;BME280;47395;42.032;-8.634;2023-01-29T09:51:43;102203.84;;;24.45;23.02
61528;BME280;47395;42.032;-8.634;2023-01-29T09:53:51;102210.97;;;24.34;23.11
61528;BME280;47395;42.032;-8.634;2023-01-29T09:56:01;102208.91;;;24.59;23.12
61528;BME280;47395;42.032;-8.634;2023-01-29T09:58:18;102205.91;;;24.20;23.52
61528;BME280;47395;42.032;-8.634;2023-01-29T10:00:39;102203.91;;;24.76;23.36
61528;BME280;47395;42.032;-8.634;2023-01-29T10:02:58;102204.81;;;24.86;23.21
61528;BME280;47395;42.032;-8.634;2023-01-29T10:05:33;102198.50;;;24.33;22.40
61528;BME280;47395;42.032;-8.634;2023-01-29T10:08:29;102198.22;;;23.71;23.17
61528;BME280;47395;42.032;-8.634;2023-01-29T10:10:47;102209.56;;;24.51;23.24
61528;BME280;47395;42.032;-8.634;2023-01-29T10:13:39;102207.19;;;24.58;23.11
61528;BME280;47395;42.032;-8.634;2023-01-29T10:16:17;102211.41;;;24.18;23.53
61528;BME280;47395;42.032;-8.634;2023-01-29T10:23:36;102218.03;;;23.47;24.85
61528;BME280;47395;42.032;-8.634;2023-01-29T10:25:39;102221.91;;;22.97;24.62
61528;BME280;47395;42.032;-8.634;2023-01-29T10:27:54;102226.56;;;23.06;24.81
61528;BME280;47395;42.032;-8.634;2023-01-29T10:29:57;102219.25;;;23.20;24.33
61528;BME280;47395;42.032;-8.634;2023-01-29T10:32:01;102224.44;;;22.40;25.49
61528;BME280;47395;42.032;-8.634;2023-01-29T10:34:21;102226.63;;;22.10;24.72
61528;BME280;47395;42.032;-8.634;2023-01-29T10:36:47;102221.44;;;22.92;25.45
61528;BME280;47395;42.032;-8.634;2023-01-29T10:38:49;102222.22;;;22.34;25.80
61528;BME280;47395;42.032;-8.634;2023-01-29T10:43:26;102219.09;;;22.51;24.96
61528;BME280;47395;42.032;-8.634;2023-01-29T10:48:27;102224.16;;;23.26;24.85
61528;BME280;47395;42.032;-8.634;2023-01-29T10:50:49;102225.00;;;23.72;24.61
61528;BME280;47395;42.032;-8.634;2023-01-29T10:53:32;102214.00;;;23.64;25.10
61528;BME280;47395;42.032;-8.634;2023-01-29T10:56:19;102204.69;;;24.12;22.72
61528;BME280;47395;42.032;-8.634;2023-01-29T10:58:44;102208.28;;;23.34;24.04
61528;BME280;47395;42.032;-8.634;2023-01-29T11:00:47;102212.84;;;24.34;23.86
61528;BME280;47395;42.032;-8.634;2023-01-29T11:02:50;102222.13;;;23.85;22.85
61528;BME280;47395;42.032;-8.634;2023-01-29T11:04:51;102217.38;;;24.22;23.40
61528;BME280;47395;42.032;-8.634;2023-01-29T11:06:52;102224.00;;;24.50;23.51
61528;BME280;47395;42.032;-8.634;2023-01-29T11:09:36;102219.50;;;24.07;23.19
61528;BME280;47395;42.032;-8.634;2023-01-29T11:11:46;102224.28;;;24.90;22.96
61528;BME280;47395;42.032;-8.634;2023-01-29T11:14:08;102218.03;;;24.14;23.63
61528;BME280;47395;42.032;-8.634;2023-01-29T11:16:11;102221.03;;;24.75;23.01
61528;BME280;47395;42.032;-8.634;2023-01-29T11:18:13;102209.09;;;24.14;23.60
61528;BME280;47395;42.032;-8.634;2023-01-29T11:20:26;102205.72;;;25.89;22.67
61528;BME280;47395;42.032;-8.634;2023-01-29T11:22:28;102215.13;;;24.81;23.92
61528;BME280;47395;42.032;-8.634;2023-01-29T11:24:29;102208.50;;;23.54;23.64
61528;BME280;47395;42.032;-8.634;2023-01-29T11:26:33;102203.94;;;23.66;24.27
61528;BME280;47395;42.032;-8.634;2023-01-29T11:28:43;102202.16;;;23.99;24.43
61528;BME280;47395;42.032;-8.634;2023-01-29T11:30:44;102203.53;;;23.94;24.17
61528;BME280;47395;42.032;-8.634;2023-01-29T11:32:49;102201.06;;;24.56;23.37
61528;BME280;47395;42.032;-8.634;2023-01-29T11:37:37;102194.75;;;24.67;22.94
61528;BME280;47395;42.032;-8.634;2023-01-29T11:39:43;102190.91;;;25.22;22.75
61528;BME280;47395;42.032;-8.634;2023-01-29T11:42:01;102185.19;;;25.47;22.35
61528;BME280;47395;42.032;-8.634;2023-01-29T11:44:17;102190.81;;;23.96;24.00
61528;BME280;47395;42.032;-8.634;2023-01-29T11:46:17;102190.69;;;24.51;23.79
61528;BME280;47395;42.032;-8.634;2023-01-29T11:48:21;102191.22;;;24.45;22.74
61528;BME280;47395;42.032;-8.634;2023-01-29T11:50:25;102186.09;;;24.09;24.40
61528;BME280;47395;42.032;-8.634;2023-01-29T11:52:37;102193.31;;;24.63;23.71
61528;BME280;47395;42.032;-8.634;2023-01-29T11:54:46;102192.38;;;24.95;22.95
61528;BME280;47395;42.032;-8.634;2023-01-29T11:56:49;102186.81;;;24.87;23.68
61528;BME280;47395;42.032;-8.634;2023-01-29T11:58:53;102177.88;;;25.59;22.97
61528;BME280;47395;42.032;-8.634;2023-01-29T12:00:56;102185.16;;;23.99;23.51